createdAt,value
2022-10-10T00:02:45.818Z,2.90
2022-10-10T00:08:47.999Z,2.45
2022-10-10T00:14:49.796Z,2.17
2022-10-10T00:20:53.251Z,2.65
2022-10-10T00:26:55.025Z,2.17
2022-10-10T00:32:59.078Z,2.45
2022-10-10T00:39:01.577Z,2.42
2022-10-10T00:45:36.048Z,2.38
2022-10-10T00:51:38.655Z,2.90
2022-10-10T00:57:41.267Z,2.80
2022-10-10T01:03:43.215Z,2.60
2022-10-10T01:09:46.110Z,2.38
2022-10-10T01:16:13.942Z,2.88
2022-10-10T01:22:35.231Z,3.03
2022-10-10T01:28:56.622Z,2.95
2022-10-10T01:34:58.446Z,3.05
2022-10-10T01:41:13.312Z,2.60
2022-10-10T01:47:15.108Z,2.45
2022-10-10T01:53:43.303Z,3.10
2022-10-10T01:59:47.838Z,3.15
2022-10-10T02:06:22.190Z,3.17
2022-10-10T02:12:25.966Z,2.90
2022-10-10T02:18:32.660Z,3.25
2022-10-10T02:24:34.808Z,3.05
2022-10-10T02:30:39.658Z,2.95
2022-10-10T02:36:47.603Z,3.47
2022-10-10T02:48:52.817Z,3.20
2022-10-10T02:54:54.643Z,2.97
2022-10-10T03:00:56.638Z,2.67
2022-10-10T03:06:58.443Z,3.00
2022-10-10T03:13:00.260Z,3.13
2022-10-10T03:19:03.439Z,2.60
2022-10-10T03:25:05.723Z,3.15
2022-10-10T03:31:07.482Z,2.95
2022-10-10T03:37:10.272Z,2.67
2022-10-10T03:43:13.830Z,3.10
2022-10-10T03:49:15.740Z,2.83
2022-10-10T03:55:17.760Z,2.80
2022-10-10T04:01:19.839Z,3.03
2022-10-10T04:07:21.704Z,3.00
2022-10-10T04:13:27.891Z,3.42
2022-10-10T04:19:29.663Z,3.80
2022-10-10T04:25:31.509Z,3.55
2022-10-10T04:31:33.631Z,3.40
2022-10-10T04:37:35.702Z,3.47
2022-10-10T04:43:37.513Z,3.28
2022-10-10T04:49:41.962Z,3.53
2022-10-10T04:55:44.479Z,3.97
2022-10-10T05:01:46.261Z,3.67
2022-10-10T05:07:50.728Z,3.95
2022-10-10T05:13:56.375Z,3.78
2022-10-10T05:19:58.167Z,3.80
2022-10-10T05:26:00.004Z,3.90
2022-10-10T05:32:04.375Z,3.60
2022-10-10T05:38:08.316Z,3.20
2022-10-10T05:44:10.166Z,3.78
2022-10-10T05:50:32.940Z,3.08
2022-10-10T05:56:34.864Z,3.60
2022-10-10T06:02:36.764Z,2.92
2022-10-10T06:08:38.598Z,3.00
2022-10-10T06:14:40.472Z,3.00
2022-10-10T06:20:42.307Z,3.00
2022-10-10T06:26:44.103Z,2.83
2022-10-10T06:32:45.944Z,3.20
2022-10-10T06:38:47.733Z,3.42
2022-10-10T06:44:49.491Z,2.95
2022-10-10T06:51:10.960Z,2.60
2022-10-10T06:57:12.806Z,3.30
2022-10-10T07:03:14.697Z,2.20
2022-10-10T07:09:18.713Z,2.88
2022-10-10T07:15:20.552Z,2.92
2022-10-10T07:21:22.316Z,2.55
2022-10-10T07:27:24.159Z,2.60
2022-10-10T07:33:26.092Z,2.60
2022-10-10T07:39:28.017Z,2.72
2022-10-10T07:45:29.783Z,2.40
2022-10-10T07:51:31.574Z,2.58
2022-10-10T07:57:36.575Z,2.67
2022-10-10T08:03:38.877Z,2.50
2022-10-10T08:09:40.719Z,2.50
2022-10-10T08:15:42.509Z,2.40
2022-10-10T08:21:44.315Z,2.53
2022-10-10T08:27:46.447Z,2.80
2022-10-10T08:33:49.600Z,2.75
2022-10-10T08:39:51.370Z,2.50
2022-10-10T08:45:55.131Z,2.90
2022-10-10T08:52:33.539Z,2.80
2022-10-10T08:58:42.317Z,2.83
2022-10-10T09:13:18.839Z,3.45
2022-10-10T09:19:59.062Z,2.80
2022-10-10T09:26:11.106Z,2.95
2022-10-10T09:32:28.962Z,2.47
2022-10-10T09:38:42.771Z,2.93
2022-10-10T09:44:44.948Z,3.10
2022-10-10T09:50:46.816Z,3.00
2022-10-10T09:56:53.673Z,2.88
2022-10-10T10:03:16.607Z,3.13
2022-10-10T10:09:21.333Z,2.70
2022-10-10T10:15:30.734Z,2.83
2022-10-10T10:21:46.935Z,3.42
2022-10-10T10:27:48.849Z,3.38
2022-10-10T10:34:17.676Z,3.03
2022-10-10T10:40:22.290Z,3.38
2022-10-10T10:46:30.496Z,2.88
2022-10-10T10:53:00.081Z,2.80
2022-10-10T10:59:41.687Z,2.90
2022-10-10T11:06:19.830Z,2.85
2022-10-10T11:12:41.151Z,2.65
2022-10-10T11:18:49.654Z,3.00
2022-10-10T11:24:58.671Z,2.88
2022-10-10T11:31:15.318Z,2.90
2022-10-10T11:37:25.627Z,3.67
2022-10-10T11:43:44.018Z,2.38
2022-10-10T11:49:55.674Z,3.30
2022-10-10T11:56:27.562Z,3.35
2022-10-10T12:02:37.929Z,2.80
2022-10-10T12:08:51.298Z,2.97
2022-10-10T12:14:55.662Z,2.70
2022-10-10T12:21:12.869Z,2.75
2022-10-10T12:27:43.967Z,2.45
2022-10-10T12:33:45.723Z,3.00
2022-10-10T12:40:07.286Z,2.90
2022-10-10T12:46:22.483Z,2.97
2022-10-10T12:52:44.829Z,3.25
2022-10-10T12:58:49.482Z,2.55
2022-10-10T13:04:56.045Z,3.22
2022-10-10T13:11:11.947Z,2.85
2022-10-10T13:17:21.833Z,2.63
2022-10-10T13:23:23.871Z,4.97
2022-10-10T13:29:31.935Z,3.33
2022-10-10T13:35:33.739Z,3.42
2022-10-10T13:41:35.609Z,3.55
2022-10-10T13:47:49.434Z,3.15
2022-10-10T13:53:54.261Z,3.30
2022-10-10T14:00:14.279Z,3.50
2022-10-10T14:06:26.263Z,3.60
2022-10-10T14:12:33.359Z,3.70
2022-10-10T14:18:35.197Z,3.40
2022-10-10T14:24:37.123Z,3.47
2022-10-10T14:30:39.368Z,3.03
2022-10-10T14:36:50.126Z,3.90
2022-10-10T14:42:52.087Z,3.35
2022-10-10T14:48:53.925Z,3.28
2022-10-10T14:54:55.787Z,3.30
2022-10-10T15:00:57.753Z,3.45
2022-10-10T15:07:12.838Z,3.05
2022-10-10T15:13:16.397Z,3.38
2022-10-10T15:19:18.219Z,3.60
2022-10-10T15:25:20.162Z,3.60
2022-10-10T15:31:30.307Z,3.20
2022-10-10T15:37:32.212Z,3.15
2022-10-10T15:43:56.428Z,2.97
2022-10-10T15:49:58.340Z,3.30
2022-10-10T15:56:00.255Z,3.08
2022-10-10T16:02:02.152Z,3.40
2022-10-10T16:08:04.584Z,3.10
2022-10-10T16:14:06.516Z,3.10
2022-10-10T16:20:08.918Z,3.65
2022-10-10T16:26:26.624Z,3.58
2022-10-10T16:32:29.689Z,4.97
2022-10-10T16:38:31.477Z,4.50
2022-10-10T16:44:33.281Z,4.90
2022-10-10T16:50:41.403Z,4.38
2022-10-10T16:56:43.262Z,4.43
2022-10-10T17:02:45.279Z,4.10
2022-10-10T17:15:53.139Z,3.85
2022-10-10T17:21:54.998Z,4.32
2022-10-10T17:27:56.818Z,4.72
2022-10-10T17:33:58.759Z,5.07
2022-10-10T17:40:00.827Z,5.45
2022-10-10T17:46:32.754Z,4.40
2022-10-10T17:52:27.346Z,3.88
2022-10-10T17:58:29.308Z,3.35
2022-10-10T18:04:31.350Z,3.65
2022-10-10T18:10:33.462Z,3.72
2022-10-10T18:16:35.752Z,2.92
2022-10-10T18:22:37.557Z,2.92
2022-10-10T18:28:42.769Z,2.85
2022-10-10T18:34:44.739Z,2.72
2022-10-10T18:40:46.916Z,2.60
2022-10-10T18:46:49.627Z,3.00
2022-10-10T18:52:53.603Z,2.50
2022-10-10T18:58:58.881Z,2.92
2022-10-10T19:05:00.827Z,3.00
2022-10-10T19:11:03.801Z,3.70
2022-10-10T19:17:05.907Z,3.20
2022-10-10T19:23:07.852Z,2.92
2022-10-10T19:29:11.343Z,3.13
2022-10-10T19:35:13.268Z,3.85
2022-10-10T19:41:16.279Z,4.10
2022-10-10T19:47:18.223Z,4.07
2022-10-10T19:53:20.083Z,5.18
2022-10-10T19:59:22.049Z,5.03
2022-10-10T20:05:23.993Z,5.55
2022-10-10T20:11:26.543Z,5.82
2022-10-10T20:17:28.993Z,6.05
2022-10-10T20:23:30.936Z,5.78
2022-10-10T20:29:32.817Z,6.63
2022-10-10T20:35:36.079Z,6.78
2022-10-10T20:41:39.220Z,6.35
2022-10-10T20:47:41.037Z,5.75
2022-10-10T20:53:42.921Z,3.42
2022-10-10T20:59:44.741Z,2.28
2022-10-10T21:05:46.538Z,2.50
2022-10-10T21:11:51.109Z,2.50
2022-10-10T21:17:53.984Z,2.50
2022-10-10T21:23:56.697Z,2.25
2022-10-10T21:29:59.790Z,2.83
2022-10-10T21:36:01.950Z,3.05
2022-10-10T21:42:04.490Z,2.15
2022-10-10T21:48:08.028Z,2.90
2022-10-10T21:54:10.197Z,2.95
2022-10-10T22:00:12.536Z,2.97
2022-10-10T22:06:17.317Z,2.58
2022-10-10T22:12:19.183Z,2.65
2022-10-10T22:18:21.049Z,2.70
2022-10-10T22:24:22.907Z,2.95
2022-10-10T22:30:24.784Z,3.00
2022-10-10T22:36:26.780Z,2.88
2022-10-10T22:42:28.590Z,3.90
2022-10-10T22:48:30.601Z,3.72
2022-10-10T22:54:33.249Z,4.57
2022-10-10T23:00:35.213Z,4.00
2022-10-10T23:06:37.671Z,4.55
2022-10-10T23:12:39.572Z,4.18
2022-10-10T23:18:41.538Z,4.03
2022-10-10T23:24:43.385Z,4.70
2022-10-10T23:30:46.702Z,4.18
2022-10-10T23:36:48.462Z,3.88
2022-10-10T23:42:50.296Z,4.15
2022-10-10T23:48:52.124Z,3.60
2022-10-10T23:54:54.060Z,3.60
